METAR Data
IDs: Format: Raw Decoded Include TAF

Data at: 0801 UTC 23 Sep 2018

KBGF 230755Z AUTO 13004KT 10SM OVC110 21/20 A3001 RMK A01
KBGF 230735Z AUTO 13004KT 10SM FEW055 OVC100 21/20 A3002 RMK A01
KBGF 230715Z AUTO 13003KT 10SM SCT050 BKN110 21/20 A3002 RMK A01
KBGF 230655Z AUTO 15003KT 10SM FEW049 SCT055 BKN090 21/19 A3002 RMK A01 P0002
KBGF 230635Z AUTO 12005G10KT 10SM BKN049 BKN060 OVC095 21/20 A3003 RMK A01
KBGF 230615Z AUTO 13006G13KT 10SM FEW008 BKN046 OVC050 22/20 A3004 RMK A01
KBGF 230555Z AUTO 12007KT 3SM BR SCT005 BKN039 OVC046 22/21 A3006 RMK A01 P0015
KBGF 230535Z AUTO 14007KT 4SM BR FEW006 BKN040 OVC060 21/20 A3006 RMK A01
KBGF 230515Z AUTO 10010KT 6SM BR SCT008 BKN046 OVC075 21/20 A3005 RMK A01
KBGF 230455Z AUTO 00000KT 3SM BR SCT008 BKN016 OVC030 22/21 A3008 RMK A01 P0007
KBGF 230435Z AUTO 00000KT 10SM FEW009 SCT016 OVC021 22/21 A3008 RMK A01
KBGF 230415Z AUTO 36004KT 10SM SCT009 BKN018 OVC022 22/21 A3008 RMK A01
KBGF 230355Z AUTO 00000KT 10SM BKN008 OVC011 23/21 A3008 RMK A01
KBGF 230335Z AUTO 34005KT 10SM OVC010 23/21 A3007 RMK A01
KBGF 230315Z AUTO VRB06KT 10SM OVC010 23/21 A3007 RMK A01
KBGF 230255Z AUTO 29007KT 10SM BKN010 BKN070 OVC075 23/21 A3007 RMK A01
KBGF 230235Z AUTO 29005KT 10SM BKN070 BKN075 OVC110 23/21 A3006 RMK A01
KBGF 230215Z AUTO 00000KT 10SM FEW070 SCT110 23/21 A3004 RMK A01
KBGF 230155Z AUTO 00000KT 10SM CLR 23/21 A3004 RMK A01
KBGF 230135Z AUTO 00000KT 10SM CLR 24/21 A3004 RMK A01
KBGF 230115Z AUTO VRB05KT 10SM CLR 24/21 A3003 RMK A01
KBGF 230055Z AUTO 02008KT 10SM FEW080 24/21 A3003 RMK A01
KBGF 230035Z AUTO 00000KT 10SM FEW080 25/22 A3002 RMK A01
KBGF 230015Z AUTO 04003G10KT 10SM CLR 25/22 A3002 RMK A01
KBGF 222355Z AUTO 03009G15KT 10SM CLR 26/22 A3002 RMK A01
KBGF 222335Z AUTO 03013KT 10SM CLR 26/22 A3001 RMK A01
KBGF 222315Z AUTO 02009KT 10SM CLR 27/23 A3001 RMK A01
KBGF 222255Z AUTO VRB03KT 10SM CLR 28/22 A3001 RMK A01
KBGF 222235Z AUTO 36004KT 10SM CLR 29/21 A3000 RMK A01
KBGF 222215Z AUTO 01006KT 10SM CLR 29/21 A3000 RMK A01
KBGF 222155Z AUTO 00000KT 10SM CLR 29/21 A2999 RMK A01
KBGF 222135Z AUTO 33003KT 10SM CLR 29/21 A2999 RMK A01
KBGF 222115Z AUTO 00000KT 10SM CLR 30/19 A2999 RMK A01
KBGF 222055Z AUTO 00000KT 10SM CLR 30/20 A2999 RMK A01
KBGF 222035Z AUTO 00000KT 10SM CLR 30/21 A3000 RMK A01
KBGF 222015Z AUTO 00000KT 10SM FEW060 30/20 A2999 RMK A01
KBGF 221955Z AUTO 00000KT 10SM CLR 29/20 A3000 RMK A01
KBGF 221935Z AUTO VRB03KT 10SM BKN050 30/20 A3001 RMK A01
KBGF 221915Z AUTO VRB04KT 10SM BKN050 BKN075 BKN090 30/21 A3003 RMK A01
KBGF 221855Z AUTO 00000KT 10SM FEW048 BKN055 BKN080 30/20 A3004 RMK A01
KBGF 221835Z AUTO 00000KT 10SM FEW045 SCT080 BKN100 30/20 A3005 RMK A01
KBGF 221815Z AUTO 00000KT 10SM FEW050 SCT080 BKN090 30/20 A3007 RMK A01
KBGF 221755Z AUTO 24008KT 10SM FEW065 SCT080 SCT090 30/21 A3008 RMK A01
KBGF 221735Z AUTO 24008KT 10SM FEW050 BKN065 BKN080 28/20 A3008 RMK A01
KBGF 221715Z AUTO 25007KT 10SM BKN055 BKN065 BKN080 28/20 A3009 RMK A01
KBGF 221655Z AUTO 24005KT 10SM BKN050 BKN070 BKN080 28/20 A3009 RMK A01
KBGF 221635Z AUTO 00000KT 10SM FEW048 BKN070 BKN090 28/20 A3010 RMK A01
KBGF 221615Z AUTO 00000KT 10SM FEW041 SCT048 BKN065 28/20 A3011 RMK A01
KBGF 221555Z AUTO 26004KT 10SM SCT042 BKN048 BKN055 28/20 A3011 RMK A01
KBGF 221535Z AUTO 24007KT 10SM FEW041 FEW060 29/20 A3011 RMK A01
KBGF 221515Z AUTO 25006KT 10SM FEW060 28/20 A3011 RMK A01
KBGF 221455Z AUTO VRB04KT 10SM SCT060 28/20 A3011 RMK A01
KBGF 221435Z AUTO 19007KT 10SM SCT060 SCT100 27/20 A3011 RMK A01
KBGF 221415Z AUTO 19004KT 10SM SCT100 27/20 A3011 RMK A01
KBGF 221355Z AUTO 00000KT 10SM FEW110 26/20 A3011 RMK A01
KBGF 221335Z AUTO 00000KT 10SM FEW110 25/20 A3011 RMK A01
KBGF 221315Z AUTO 00000KT 10SM SCT065 BKN110 24/21 A3011 RMK A01
KBGF 221255Z AUTO 00000KT 10SM OVC065 23/21 A3011 RMK A01
KBGF 221235Z AUTO 00000KT 10SM OVC060 22/21 A3011 RMK A01
KBGF 221215Z AUTO 00000KT 10SM BKN060 OVC070 22/21 A3011 RMK A01
KBGF 221155Z AUTO 00000KT 10SM BKN055 OVC060 22/21 A3010 RMK A01
KBGF 221135Z AUTO 00000KT 10SM OVC060 21/20 A3010 RMK A01
KBGF 221115Z AUTO 00000KT 10SM OVC055 21/20 A3009 RMK A01
KBGF 221055Z AUTO 11004KT 10SM OVC055 21/20 A3009 RMK A01
KBGF 221035Z AUTO 10003KT 10SM OVC055 22/20 A3009 RMK A01
KBGF 221015Z AUTO 00000KT 10SM OVC055 22/20 A3009 RMK A01
KBGF 220955Z AUTO 00000KT 10SM BKN050 BKN110 21/20 A3009 RMK A01
KBGF 220935Z AUTO 10003KT 10SM SCT050 21/20 A3009 RMK A01
KBGF 220915Z AUTO 11004KT 10SM SCT049 21/20 A3008 RMK A01
KBGF 220855Z AUTO 14004KT 10SM FEW048 21/20 A3009 RMK A01
KBGF 220835Z AUTO 00000KT 10SM BKN048 22/21 A3009 RMK A01
KBGF 220815Z AUTO 00000KT 10SM BKN049 22/21 A3010 RMK A01
KBGF 220755Z AUTO 13005KT 10SM BKN050 BKN060 21/20 A3010 RMK A01
KBGF 220735Z AUTO 00000KT 10SM FEW042 SCT048 BKN055 22/20 A3011 RMK A01
KBGF 220715Z AUTO 00000KT 10SM BKN044 BKN055 22/21 A3011 RMK A01
KBGF 220655Z AUTO 00000KT 10SM SCT047 BKN055 22/21 A3011 RMK A01
KBGF 220635Z AUTO 00000KT 10SM BKN055 OVC065 23/21 A3011 RMK A01
KBGF 220615Z AUTO 00000KT 10SM SCT050 OVC060 23/21 A3012 RMK A01
KBGF 220555Z AUTO 12003KT 10SM BKN060 OVC080 23/21 A3012 RMK A01
KBGF 220535Z AUTO 13003KT 10SM OVC080 23/21 A3012 RMK A01
KBGF 220515Z AUTO 14004KT 10SM FEW060 OVC080 23/21 A3012 RMK A01
KBGF 220455Z AUTO 00000KT 10SM BKN060 OVC080 23/21 A3013 RMK A01
KBGF 220435Z AUTO 00000KT 10SM SCT060 22/21 A3013 RMK A01
KBGF 220415Z AUTO 00000KT 10SM CLR 23/21 A3012 RMK A01
KBGF 220355Z AUTO 07003KT 10SM CLR 23/21 A3012 RMK A01
KBGF 220335Z AUTO 05003KT 10SM CLR 23/21 A3012 RMK A01
KBGF 220315Z AUTO 00000KT 10SM CLR 23/21 A3011 RMK A01
KBGF 220255Z AUTO 00000KT 10SM CLR 23/21 A3011 RMK A01
KBGF 220235Z AUTO 00000KT 10SM CLR 23/21 A3011 RMK A01
KBGF 220215Z AUTO 00000KT 10SM FEW090 23/21 A3011 RMK A01
KBGF 220155Z AUTO 14004KT 10SM BKN090 24/21 A3011 RMK A01
KBGF 220135Z AUTO 12005KT 10SM BKN080 OVC090 24/22 A3011 RMK A01
KBGF 220115Z AUTO 00000KT 10SM FEW070 BKN085 24/22 A3011 RMK A01
KBGF 220055Z AUTO 00000KT 10SM SCT070 BKN085 23/21 A3010 RMK A01
KBGF 220035Z AUTO 00000KT 10SM FEW070 24/22 A3010 RMK A01
KBGF 220015Z AUTO 00000KT 10SM CLR 25/22 A3009 RMK A01
KBGF 212355Z AUTO 00000KT 10SM CLR 25/22 A3008 RMK A01
KBGF 212335Z AUTO 15005KT 10SM CLR 25/22 A3007 RMK A01
KBGF 212315Z AUTO 13004KT 10SM CLR 25/22 A3007 RMK A01
KBGF 212255Z AUTO 12005KT 10SM FEW048 26/22 A3007 RMK A01
KBGF 212235Z AUTO 12004KT 10SM SCT048 SCT120 26/22 A3006 RMK A01
KBGF 212215Z AUTO 13005KT 10SM FEW050 FEW070 BKN120 25/22 A3007 RMK A01
KBGF 212155Z AUTO 13007KT 10SM SCT045 BKN050 OVC110 25/22 A3007 RMK A01
KBGF 212135Z AUTO 15010G18KT 10SM FEW032 SCT038 OVC045 25/21 A3007 RMK A01
KBGF 212115Z AUTO 15011G17KT 10SM SCT035 SCT042 BKN047 28/22 A3006 RMK A01
KBGF 212055Z AUTO 22005KT 10SM FEW055 30/21 A3005 RMK A01
KBGF 212035Z AUTO 00000KT 10SM FEW120 31/21 A3005 RMK A01
KBGF 212015Z AUTO 20004KT 10SM BKN120 30/22 A3006 RMK A01